Time;durP1;ratioP1;P1;durP2;ratioP2;P2;SDS_P1;SDS_P2;PMS_P1;PMS_P2;Temp;Humidity;BMP_temperature;BMP_pressure;BME280_temperature;BME280_humidity;BME280_pressure;Samples;Min_cycle;Max_cycle;Signal;HPM_P1;HPM_P2
2023/02/27 00:01:03;;;;;;;12.20;7.10;;;14.90;41.80;;;;;;6306142;22;20404;-79
2023/02/27 00:03:31;;;;;;;10.63;7.27;;;14.90;41.90;;;;;;6307262;22;20430;-79
2023/02/27 00:05:59;;;;;;;13.90;7.47;;;14.80;41.90;;;;;;6308932;22;20408;-80
2023/02/27 00:08:27;;;;;;;15.27;7.13;;;14.80;41.90;;;;;;6308536;22;20439;-80
2023/02/27 00:10:56;;;;;;;12.27;7.70;;;14.80;41.90;;;;;;6307568;22;20497;-80
2023/02/27 00:13:24;;;;;;;10.77;7.37;;;14.80;41.90;;;;;;6307052;22;20424;-81
2023/02/27 00:15:55;;;;;;;13.17;7.83;;;14.70;42.00;;;;;;6307554;22;20404;-80
2023/02/27 00:18:23;;;;;;;10.77;7.73;;;14.70;41.80;;;;;;6307424;22;20407;-80
2023/02/27 00:20:51;;;;;;;13.80;8.33;;;14.80;42.00;;;;;;6308843;22;20400;-80
2023/02/27 00:23:19;;;;;;;11.73;7.50;;;14.70;41.90;;;;;;6310475;22;20425;-80
2023/02/27 00:25:46;;;;;;;11.00;7.37;;;14.70;42.00;;;;;;6309553;22;20428;-81
2023/02/27 00:28:16;;;;;;;14.03;8.50;;;14.70;42.10;;;;;;6310723;22;20409;-80
2023/02/27 00:30:44;;;;;;;13.47;8.03;;;14.70;41.90;;;;;;6309584;22;20507;-80
2023/02/27 00:33:12;;;;;;;11.03;8.00;;;14.60;42.10;;;;;;6309683;22;20428;-80
2023/02/27 00:35:40;;;;;;;11.07;7.77;;;14.60;41.90;;;;;;6310353;22;20396;-81
2023/02/27 00:38:07;;;;;;;14.00;8.10;;;14.60;42.20;;;;;;6309602;22;20737;-80
2023/02/27 00:40:35;;;;;;;14.33;8.03;;;14.60;42.10;;;;;;6310583;22;20406;-81
2023/02/27 00:43:03;;;;;;;11.57;7.80;;;14.50;42.10;;;;;;6309677;22;20410;-79
2023/02/27 00:45:33;;;;;;;14.73;9.13;;;14.50;42.10;;;;;;6309650;22;20404;-81
2023/02/27 00:48:01;;;;;;;11.97;7.50;;;14.60;42.30;;;;;;6311066;22;20395;-81
2023/02/27 00:50:29;;;;;;;15.33;8.20;;;14.50;42.20;;;;;;6309433;22;20423;-81
2023/02/27 00:52:56;;;;;;;14.63;8.10;;;14.50;42.20;;;;;;6310586;22;20404;-80
2023/02/27 00:55:24;;;;;;;12.57;8.10;;;14.40;42.10;;;;;;6309967;22;20409;-80
2023/02/27 00:57:54;;;;;;;15.30;8.63;;;14.40;42.30;;;;;;6310219;22;20522;-81
2023/02/27 01:00:22;;;;;;;12.80;8.83;;;14.40;42.30;;;;;;6309612;22;20466;-80
2023/02/27 01:02:54;;;;;;;27.67;8.10;;;14.40;42.30;;;;;;6309634;22;20479;-81
2023/02/27 01:05:22;;;;;;;13.50;8.70;;;14.40;42.40;;;;;;6309161;22;20475;-80
2023/02/27 01:07:50;;;;;;;14.30;8.80;;;14.40;42.40;;;;;;6310222;22;20475;-81
2023/02/27 01:10:18;;;;;;;16.20;9.30;;;14.40;42.40;;;;;;6309663;22;20397;-81
2023/02/27 01:12:46;;;;;;;17.27;9.23;;;14.30;42.40;;;;;;6309853;22;20410;-81
2023/02/27 01:15:14;;;;;;;13.57;8.93;;;14.30;42.30;;;;;;6309259;22;20443;-80
2023/02/27 01:17:42;;;;;;;14.80;9.80;;;14.30;42.40;;;;;;6308820;22;20404;-80
2023/02/27 01:20:12;;;;;;;15.30;9.20;;;14.30;42.50;;;;;;6309057;22;20381;-78
2023/02/27 01:22:40;;;;;;;12.87;8.50;;;14.30;42.50;;;;;;6308513;22;20428;-80
2023/02/27 01:25:09;;;;;;;24.30;12.87;;;14.20;42.50;;;;;;6309875;22;20483;-82
2023/02/27 01:27:37;;;;;;;29.70;17.77;;;14.20;42.60;;;;;;6309420;22;20432;-81
2023/02/27 01:30:06;;;;;;;32.43;16.23;;;14.20;42.50;;;;;;6310128;22;20396;-81
2023/02/27 01:32:34;;;;;;;24.30;13.90;;;14.20;42.70;;;;;;6309120;22;20428;-80
2023/02/27 01:35:03;;;;;;;26.77;15.10;;;14.10;42.70;;;;;;6309749;22;20451;-80
2023/02/27 01:37:32;;;;;;;22.87;13.13;;;14.10;42.60;;;;;;6310288;22;20410;-80
2023/02/27 01:40:00;;;;;;;20.73;12.93;;;14.10;42.70;;;;;;6309120;22;20460;-81
2023/02/27 01:42:28;;;;;;;23.20;13.17;;;14.10;42.70;;;;;;6308994;22;20431;-79
2023/02/27 01:45:15;;;;;;;22.43;13.57;;;14.10;42.80;;;;;;6308687;22;20430;-79
2023/02/27 01:47:43;;;;;;;21.97;13.10;;;14.10;42.70;;;;;;6306927;22;20404;-79
2023/02/27 01:50:11;;;;;;;22.77;12.93;;;14.10;43.00;;;;;;6307057;22;20461;-77
2023/02/27 01:52:41;;;;;;;22.10;12.33;;;14.10;42.90;;;;;;6307683;22;20435;-78
2023/02/27 01:55:11;;;;;;;20.00;11.90;;;14.00;42.80;;;;;;6306939;22;20452;-79
2023/02/27 01:57:39;;;;;;;21.43;12.33;;;14.00;42.90;;;;;;6307608;22;20417;-79
2023/02/27 02:00:08;;;;;;;20.00;11.97;;;14.00;42.90;;;;;;6307706;22;20412;-79
2023/02/27 02:02:39;;;;;;;21.70;12.23;;;14.00;42.90;;;;;;6306914;22;20424;-79
2023/02/27 02:05:07;;;;;;;18.80;12.13;;;14.00;42.90;;;;;;6309939;22;20428;-80
2023/02/27 02:07:37;;;;;;;20.17;11.80;;;13.90;43.00;;;;;;6309461;22;20411;-80
2023/02/27 02:10:07;;;;;;;19.70;10.67;;;13.90;43.10;;;;;;6308861;22;20404;-80
2023/02/27 02:12:36;;;;;;;20.63;11.60;;;13.90;43.10;;;;;;6308451;22;20440;-80
2023/02/27 02:15:05;;;;;;;18.67;10.43;;;13.90;43.10;;;;;;6316852;22;20431;-81
2023/02/27 02:17:43;;;;;;;17.27;10.03;;;13.90;43.20;;;;;;6314866;22;20402;-80
2023/02/27 02:20:55;;;;;;;17.07;10.33;;;13.90;43.20;;;;;;6310065;22;20439;-79
2023/02/27 02:23:39;;;;;;;15.27;10.00;;;13.90;43.10;;;;;;6303169;22;20423;-79
2023/02/27 02:26:43;;;;;;;14.80;9.77;;;13.90;43.00;;;;;;6310371;22;20419;-80
2023/02/27 02:29:51;;;;;;;15.57;9.70;;;13.90;43.20;;;;;;6309039;22;20400;-81
2023/02/27 02:32:48;;;;;;;14.70;9.50;;;13.80;43.20;;;;;;6270410;22;20454;-80
2023/02/27 02:35:48;;;;;;;16.20;8.63;;;13.80;43.30;;;;;;6309427;22;20425;-81
2023/02/27 02:38:30;;;;;;;17.80;9.00;;;13.70;43.10;;;;;;6308949;22;20402;-80
2023/02/27 02:41:00;;;;;;;13.23;8.07;;;13.70;43.30;;;;;;6308408;22;20435;-79
2023/02/27 02:43:30;;;;;;;12.80;8.40;;;13.70;43.50;;;;;;6308511;22;20483;-80
2023/02/27 02:46:01;;;;;;;14.70;8.87;;;13.70;43.30;;;;;;6309533;22;20419;-80
2023/02/27 02:48:31;;;;;;;14.27;9.10;;;13.70;43.30;;;;;;6308595;22;20487;-79
2023/02/27 02:51:03;;;;;;;12.50;8.67;;;13.70;43.40;;;;;;6308283;22;20397;-79
2023/02/27 02:53:35;;;;;;;14.23;8.30;;;13.60;43.20;;;;;;6307973;22;20439;-80
2023/02/27 02:56:05;;;;;;;11.93;8.37;;;13.60;43.50;;;;;;6310099;22;20433;-80
2023/02/27 02:58:35;;;;;;;14.60;8.60;;;13.60;43.40;;;;;;6310449;22;20413;-80
2023/02/27 03:01:08;;;;;;;12.43;7.97;;;13.60;43.40;;;;;;6308654;22;20404;-78
2023/02/27 03:03:39;;;;;;;17.43;8.10;;;13.60;43.30;;;;;;6308993;22;20420;-79
2023/02/27 03:06:09;;;;;;;14.30;7.77;;;13.60;43.50;;;;;;6309217;22;20396;-80
2023/02/27 03:08:42;;;;;;;11.97;8.20;;;13.60;43.40;;;;;;6309193;22;20400;-80
2023/02/27 03:11:10;;;;;;;12.83;7.63;;;13.60;43.30;;;;;;6309431;22;20420;-79
2023/02/27 03:13:40;;;;;;;13.40;7.67;;;13.50;43.20;;;;;;6308567;22;20437;-80
2023/02/27 03:16:10;;;;;;;10.70;7.37;;;13.50;43.40;;;;;;6308979;22;20422;-79
2023/02/27 03:18:42;;;;;;;10.60;6.73;;;13.50;43.50;;;;;;6308275;22;20462;-80
2023/02/27 03:21:12;;;;;;;12.20;7.60;;;13.50;43.40;;;;;;6308847;22;20407;-80
2023/02/27 03:23:44;;;;;;;12.73;7.23;;;13.50;43.60;;;;;;6308401;22;20421;-80
2023/02/27 03:26:13;;;;;;;9.70;7.20;;;13.50;43.60;;;;;;6308399;22;20428;-80
2023/02/27 03:28:44;;;;;;;9.40;6.40;;;13.50;43.50;;;;;;6308518;22;20408;-79
2023/02/27 03:31:15;;;;;;;11.27;7.53;;;13.40;43.50;;;;;;6309477;22;20389;-80
2023/02/27 03:33:45;;;;;;;10.40;6.80;;;13.40;43.40;;;;;;6308549;22;20460;-80
2023/02/27 03:36:17;;;;;;;10.60;7.00;;;13.40;43.40;;;;;;6308749;22;20401;-79
2023/02/27 03:38:48;;;;;;;9.53;6.60;;;13.40;43.60;;;;;;6306734;22;20389;-79
2023/02/27 03:41:19;;;;;;;12.60;7.23;;;13.40;43.50;;;;;;6306796;22;20412;-79
2023/02/27 03:43:51;;;;;;;13.23;7.13;;;13.40;43.60;;;;;;6307256;22;20420;-79
2023/02/27 03:46:20;;;;;;;10.87;6.93;;;13.30;43.60;;;;;;6308695;22;20404;-80
2023/02/27 03:48:48;;;;;;;10.10;6.70;;;13.30;43.60;;;;;;6308761;22;20405;-80
2023/02/27 03:51:18;;;;;;;11.90;6.57;;;13.30;43.50;;;;;;6307187;22;20435;-79
2023/02/27 03:53:49;;;;;;;7.57;5.87;;;13.30;43.50;;;;;;6308672;22;20435;-78
2023/02/27 03:56:20;;;;;;;10.70;6.53;;;13.30;43.60;;;;;;6310109;22;20451;-79
2023/02/27 03:58:48;;;;;;;9.70;6.40;;;13.20;44.20;;;;;;6309831;22;20396;-79
2023/02/27 04:01:16;;;;;;;9.07;6.40;;;13.20;43.70;;;;;;6310142;22;20426;-79
2023/02/27 04:03:48;;;;;;;7.63;5.67;;;13.20;43.60;;;;;;6309105;22;20420;-78
2023/02/27 04:09:04;;;;;;;11.20;6.27;;;13.20;43.60;;;;;;6309440;22;20400;-79
2023/02/27 04:11:35;;;;;;;8.57;5.67;;;13.20;43.80;;;;;;6308873;22;20435;-79
2023/02/27 04:14:10;;;;;;;7.00;5.30;;;13.10;43.60;;;;;;6309056;22;20442;-79
2023/02/27 04:16:50;;;;;;;10.13;5.93;;;13.10;43.60;;;;;;6309120;22;20453;-79
2023/02/27 04:19:45;;;;;;;7.67;5.90;;;13.10;43.50;;;;;;6310834;22;20407;-81
2023/02/27 04:22:19;;;;;;;7.90;5.43;;;13.10;43.70;;;;;;6310094;22;20428;-80
2023/02/27 04:24:54;;;;;;;7.60;5.10;;;13.10;44.40;;;;;;6309873;22;20426;-79
2023/02/27 04:27:27;;;;;;;9.23;5.87;;;13.10;43.70;;;;;;6309948;22;20440;-78
2023/02/27 04:29:57;;;;;;;7.90;5.40;;;13.00;43.70;;;;;;6310991;22;20373;-78
2023/02/27 04:32:29;;;;;;;7.73;5.40;;;13.00;43.60;;;;;;6310208;22;20443;-78
2023/02/27 04:34:58;;;;;;;9.23;5.53;;;13.00;43.70;;;;;;6309377;22;20447;-79
2023/02/27 04:37:29;;;;;;;9.17;5.50;;;13.00;43.80;;;;;;6309652;22;20435;-79
2023/02/27 04:40:00;;;;;;;7.00;5.10;;;13.00;43.80;;;;;;6309809;22;20404;-80
2023/02/27 04:42:30;;;;;;;7.50;4.83;;;13.00;43.80;;;;;;6310250;22;20428;-79
2023/02/27 04:45:00;;;;;;;10.17;5.57;;;13.00;43.90;;;;;;6310160;22;20430;-79
2023/02/27 04:47:29;;;;;;;7.50;5.13;;;12.90;43.80;;;;;;6309692;22;20407;-79
2023/02/27 04:49:59;;;;;;;5.77;4.73;;;12.90;43.70;;;;;;6309876;22;20414;-79
2023/02/27 04:52:29;;;;;;;8.50;5.20;;;12.90;43.80;;;;;;6312216;22;20404;-79
2023/02/27 04:55:00;;;;;;;6.37;4.80;;;12.90;43.90;;;;;;6311524;22;20428;-79
2023/02/27 04:57:30;;;;;;;8.17;4.97;;;12.90;43.90;;;;;;6311691;22;20434;-79
2023/02/27 04:59:58;;;;;;;10.60;5.30;;;12.90;43.80;;;;;;6310959;22;20435;-79
2023/02/27 05:02:27;;;;;;;6.90;5.07;;;12.90;43.80;;;;;;6311228;22;20407;-79
2023/02/27 05:04:57;;;;;;;8.10;5.03;;;12.90;44.00;;;;;;6309660;22;20416;-79
2023/02/27 05:07:26;;;;;;;9.63;5.07;;;12.90;43.90;;;;;;6309647;22;20392;-79
2023/02/27 05:09:56;;;;;;;7.03;5.00;;;12.80;43.90;;;;;;6309895;22;20396;-79
2023/02/27 05:12:28;;;;;;;7.90;5.30;;;12.80;43.90;;;;;;6309907;22;20416;-79
2023/02/27 05:14:59;;;;;;;7.03;4.70;;;12.80;44.00;;;;;;6309014;22;20409;-79
2023/02/27 05:17:31;;;;;;;8.00;4.63;;;12.80;44.00;;;;;;6308639;22;20396;-79
2023/02/27 05:19:59;;;;;;;6.97;4.63;;;12.80;44.00;;;;;;6308496;22;20934;-78
2023/02/27 05:22:30;;;;;;;10.87;5.17;;;12.80;44.00;;;;;;6318376;22;20479;-79
2023/02/27 05:25:01;;;;;;;6.27;4.83;;;12.80;43.90;;;;;;6310367;22;20524;-78
2023/02/27 05:27:33;;;;;;;7.57;4.80;;;12.80;44.00;;;;;;6309316;22;20436;-79
2023/02/27 05:30:03;;;;;;;4.87;3.90;;;12.80;44.00;;;;;;6308446;22;20411;-79
2023/02/27 05:32:34;;;;;;;4.87;4.17;;;12.80;44.00;;;;;;6309100;22;20404;-79
2023/02/27 05:35:08;;;;;;;7.27;4.70;;;12.80;44.00;;;;;;6309311;22;20440;-79
2023/02/27 05:37:39;;;;;;;6.43;4.03;;;12.80;44.10;;;;;;6309551;22;20400;-79
2023/02/27 05:40:08;;;;;;;7.43;4.40;;;12.80;44.00;;;;;;6309517;22;20380;-79
2023/02/27 05:42:40;;;;;;;6.20;4.50;;;12.80;44.00;;;;;;6308545;22;20432;-79
2023/02/27 05:45:09;;;;;;;6.33;4.10;;;12.80;44.10;;;;;;6308438;22;20416;-79
2023/02/27 05:47:39;;;;;;;8.07;4.30;;;12.80;44.10;;;;;;6309192;22;20411;-79
2023/02/27 05:50:09;;;;;;;8.90;4.87;;;12.80;44.10;;;;;;6309923;22;20475;-80
2023/02/27 05:52:37;;;;;;;7.17;4.37;;;12.80;44.10;;;;;;6308680;22;20414;-79
2023/02/27 05:55:06;;;;;;;4.67;3.70;;;12.80;44.10;;;;;;6308047;22;20433;-78
2023/02/27 05:57:38;;;;;;;4.93;4.20;;;12.90;44.30;;;;;;6307561;22;20448;-80
2023/02/27 06:00:10;;;;;;;6.03;4.00;;;12.90;44.20;;;;;;6307812;22;20404;-77
2023/02/27 06:02:38;;;;;;;4.40;4.00;;;12.90;44.20;;;;;;6306380;22;20403;-78
2023/02/27 06:05:07;;;;;;;4.17;3.77;;;12.90;44.10;;;;;;6306732;22;20427;-77
2023/02/27 06:07:35;;;;;;;4.27;3.80;;;12.90;44.10;;;;;;6306843;22;20411;-78
2023/02/27 06:10:04;;;;;;;5.93;3.77;;;12.90;44.30;;;;;;6307338;22;20427;-78
2023/02/27 06:12:32;;;;;;;8.23;4.37;;;12.90;44.20;;;;;;6307035;22;20469;-79
2023/02/27 06:15:01;;;;;;;6.07;3.70;;;12.90;44.20;;;;;;6305713;22;20432;-78
2023/02/27 06:17:29;;;;;;;3.93;3.53;;;12.90;44.20;;;;;;6305522;22;20476;-77
2023/02/27 06:19:57;;;;;;;4.63;3.60;;;12.90;44.20;;;;;;6306379;22;20901;-78
2023/02/27 06:22:25;;;;;;;5.70;4.00;;;12.90;44.30;;;;;;6306867;22;20393;-78
2023/02/27 06:24:53;;;;;;;5.37;4.10;;;12.80;44.30;;;;;;6306476;22;20421;-78
2023/02/27 06:27:21;;;;;;;4.30;3.73;;;12.90;44.40;;;;;;6306397;22;20436;-78
2023/02/27 06:29:49;;;;;;;5.33;4.10;;;12.90;44.20;;;;;;6305644;22;20411;-78
2023/02/27 06:32:19;;;;;;;4.80;4.00;;;12.90;44.30;;;;;;6306039;22;20413;-78
2023/02/27 06:34:47;;;;;;;5.30;4.10;;;13.00;44.30;;;;;;6306478;22;20440;-78
2023/02/27 06:37:15;;;;;;;7.10;4.33;;;12.90;44.20;;;;;;6306977;22;20397;-78
2023/02/27 06:39:43;;;;;;;5.33;4.10;;;12.90;44.30;;;;;;6306773;22;20393;-77
2023/02/27 06:42:11;;;;;;;4.30;3.90;;;12.90;44.30;;;;;;6306080;22;20416;-78
2023/02/27 06:44:39;;;;;;;6.10;3.90;;;12.90;44.40;;;;;;6305995;22;20409;-78
2023/02/27 06:47:07;;;;;;;5.30;4.07;;;12.90;44.40;;;;;;6306102;22;20389;-78
2023/02/27 06:49:36;;;;;;;4.33;3.93;;;13.00;44.30;;;;;;6306189;22;20392;-78
2023/02/27 06:52:04;;;;;;;5.37;3.57;;;13.00;44.40;;;;;;6306648;22;20409;-79
2023/02/27 06:54:32;;;;;;;4.73;3.80;;;13.00;44.40;;;;;;6306003;22;20515;-78
2023/02/27 06:57:01;;;;;;;4.97;3.87;;;13.00;44.40;;;;;;6305970;22;20433;-79
2023/02/27 06:59:29;;;;;;;4.03;3.63;;;13.00;44.50;;;;;;6306296;22;20415;-79
2023/02/27 07:01:58;;;;;;;4.83;3.60;;;13.00;44.50;;;;;;6305350;22;20471;-77
2023/02/27 07:04:25;;;;;;;3.23;2.90;;;13.00;44.50;;;;;;6306137;22;20427;-77
2023/02/27 07:06:55;;;;;;;3.53;3.23;;;13.00;44.60;;;;;;6306627;22;20410;-79
2023/02/27 07:09:43;;;;;;;5.30;4.20;;;13.00;44.60;;;;;;6305918;22;20396;-78
2023/02/27 07:12:11;;;;;;;4.90;3.80;;;13.00;44.60;;;;;;6305875;22;20435;-79
2023/02/27 07:14:39;;;;;;;4.33;3.80;;;13.10;44.60;;;;;;6305736;22;20771;-79
2023/02/27 07:17:07;;;;;;;4.53;3.60;;;13.10;44.50;;;;;;6306497;22;20487;-77
2023/02/27 07:19:36;;;;;;;5.13;3.33;;;13.10;44.60;;;;;;6305910;22;20491;-77
2023/02/27 07:22:05;;;;;;;6.37;3.80;;;13.10;44.70;;;;;;6307290;22;20515;-78
2023/02/27 07:24:33;;;;;;;3.93;3.50;;;13.10;44.50;;;;;;6307209;22;20409;-78
2023/02/27 07:27:01;;;;;;;5.13;3.93;;;13.20;44.60;;;;;;6305636;22;20424;-79
2023/02/27 07:29:29;;;;;;;4.87;3.60;;;13.20;44.60;;;;;;6306794;22;20491;-79
2023/02/27 07:31:57;;;;;;;4.10;3.70;;;13.20;44.60;;;;;;6306476;22;20404;-78
2023/02/27 07:34:25;;;;;;;5.63;3.37;;;13.20;45.20;;;;;;6306403;22;20462;-78
2023/02/27 07:36:53;;;;;;;3.80;3.50;;;13.20;44.60;;;;;;6305286;22;20404;-78
2023/02/27 07:39:23;;;;;;;4.30;3.43;;;13.30;44.60;;;;;;6306237;22;20408;-78
2023/02/27 07:41:51;;;;;;;3.60;2.93;;;13.30;44.60;;;;;;6305241;22;20420;-78
2023/02/27 07:44:19;;;;;;;4.47;3.17;;;13.40;44.60;;;;;;6305695;22;20424;-79
2023/02/27 07:46:47;;;;;;;3.90;3.30;;;13.30;44.60;;;;;;6305828;22;20404;-77
2023/02/27 07:49:15;;;;;;;5.17;3.17;;;13.40;44.50;;;;;;6305384;22;20404;-78
2023/02/27 07:51:43;;;;;;;4.57;3.33;;;13.50;44.60;;;;;;6305769;22;20491;-79
2023/02/27 07:54:11;;;;;;;3.07;2.60;;;13.50;44.50;;;;;;6305567;22;20448;-79
2023/02/27 07:56:40;;;;;;;5.77;3.50;;;13.50;44.50;;;;;;6305432;22;20431;-79
2023/02/27 07:59:09;;;;;;;4.27;3.53;;;13.60;44.60;;;;;;6305303;22;20408;-79
2023/02/27 08:01:37;;;;;;;5.40;3.30;;;13.60;44.60;;;;;;6310585;22;20413;-82
2023/02/27 08:04:04;;;;;;;4.23;3.20;;;13.60;44.60;;;;;;6328157;22;20451;-80
2023/02/27 08:06:32;;;;;;;4.10;3.20;;;13.70;44.60;;;;;;6306635;22;20418;-78
2023/02/27 08:09:00;;;;;;;4.37;3.20;;;13.70;44.60;;;;;;6306032;22;20404;-79
2023/02/27 08:11:28;;;;;;;4.00;3.60;;;13.80;44.70;;;;;;6304806;22;20427;-79
2023/02/27 08:13:58;;;;;;;3.10;2.83;;;13.90;44.70;;;;;;6316180;22;20420;-81
2023/02/27 08:16:29;;;;;;;3.40;2.77;;;13.90;44.70;;;;;;6312697;22;20505;-80
2023/02/27 08:18:58;;;;;;;3.73;3.30;;;13.90;44.80;;;;;;6320014;22;20415;-79
2023/02/27 08:21:26;;;;;;;3.90;3.00;;;14.00;44.90;;;;;;6318088;22;20802;-80
2023/02/27 08:23:55;;;;;;;3.00;2.67;;;14.10;45.00;;;;;;6326990;22;20431;-79
2023/02/27 08:26:23;;;;;;;3.00;2.80;;;14.20;45.00;;;;;;6322446;22;20424;-81
2023/02/27 08:28:51;;;;;;;3.10;2.80;;;14.20;45.10;;;;;;6332908;22;20475;-81
2023/02/27 08:31:21;;;;;;;3.20;2.70;;;14.40;45.30;;;;;;6332028;22;20403;-81
2023/02/27 08:33:49;;;;;;;2.77;2.50;;;14.50;45.40;;;;;;6332701;22;20420;-80
2023/02/27 08:36:34;;;;;;;4.10;3.00;;;14.60;45.50;;;;;;6333170;22;20405;-83
2023/02/27 08:39:03;;;;;;;4.30;2.73;;;14.80;45.60;;;;;;6325140;22;20415;-80
2023/02/27 08:41:31;;;;;;;3.03;2.60;;;14.90;45.60;;;;;;6316965;22;20429;-80
2023/02/27 08:43:59;;;;;;;3.07;2.60;;;15.10;45.70;;;;;;6324679;22;20424;-79
2023/02/27 08:46:29;;;;;;;3.40;3.10;;;15.30;45.60;;;;;;6327758;22;20426;-79
2023/02/27 08:48:58;;;;;;;4.10;3.00;;;15.50;45.60;;;;;;6328125;22;20435;-80
2023/02/27 08:51:26;;;;;;;2.83;2.60;;;15.70;45.60;;;;;;6322022;22;20408;-79
2023/02/27 08:53:57;;;;;;;2.97;2.77;;;16.00;45.70;;;;;;6309094;22;20424;-77
2023/02/27 08:56:25;;;;;;;3.90;3.57;;;16.10;45.50;;;;;;6308740;22;20468;-78
2023/02/27 08:58:54;;;;;;;2.70;2.53;;;16.40;45.70;;;;;;6308460;22;20423;-79
2023/02/27 09:01:25;;;;;;;2.87;2.67;;;16.60;45.70;;;;;;6309583;22;20411;-78
2023/02/27 09:03:56;;;;;;;3.03;2.83;;;16.80;45.60;;;;;;6310485;22;20428;-79
2023/02/27 09:06:24;;;;;;;2.90;2.70;;;17.00;45.60;;;;;;6311207;22;20400;-81
2023/02/27 09:08:53;;;;;;;4.77;3.20;;;17.20;45.60;;;;;;6309558;22;20404;-77
2023/02/27 09:11:21;;;;;;;4.97;2.80;;;17.40;45.50;;;;;;6306444;22;20462;-79
2023/02/27 09:13:51;;;;;;;2.93;2.73;;;17.60;45.40;;;;;;6307130;22;20424;-79
2023/02/27 09:16:19;;;;;;;3.07;2.80;;;17.80;45.40;;;;;;6310731;22;20428;-80
2023/02/27 09:18:48;;;;;;;2.93;2.50;;;18.10;45.40;;;;;;6308196;22;20404;-78
2023/02/27 09:21:17;;;;;;;4.87;2.77;;;18.30;45.40;;;;;;6307785;22;20393;-78
2023/02/27 09:23:45;;;;;;;3.10;2.80;;;18.60;45.40;;;;;;6307912;22;20430;-78
2023/02/27 09:26:15;;;;;;;3.17;2.97;;;18.80;45.40;;;;;;6306705;22;20432;-78
2023/02/27 09:28:43;;;;;;;2.67;2.40;;;19.00;45.10;;;;;;6307006;22;20411;-78
2023/02/27 09:31:11;;;;;;;2.73;2.53;;;19.30;45.00;;;;;;6308215;22;20400;-78
2023/02/27 09:33:39;;;;;;;3.10;2.80;;;19.50;44.90;;;;;;6308525;22;20428;-79
2023/02/27 09:36:08;;;;;;;2.37;2.20;;;19.80;44.90;;;;;;6307677;22;20428;-79
2023/02/27 09:38:38;;;;;;;2.70;2.40;;;20.00;44.70;;;;;;6308234;22;20408;-78
2023/02/27 09:41:22;;;;;;;2.90;2.70;;;20.20;44.50;;;;;;6307510;22;20416;-79
2023/02/27 09:43:56;;;;;;;2.93;2.63;;;20.50;44.60;;;;;;6307901;22;20446;-78
2023/02/27 09:46:43;;;;;;;2.87;2.67;;;20.70;44.40;;;;;;6308240;22;20809;-78
2023/02/27 09:49:17;;;;;;;3.10;2.50;;;20.90;44.20;;;;;;6308536;22;20408;-79
2023/02/27 09:51:51;;;;;;;2.40;2.20;;;21.10;44.10;;;;;;6309139;22;20404;-80
2023/02/27 09:54:26;;;;;;;3.13;2.47;;;21.30;44.00;;;;;;6307780;22;20408;-77
2023/02/27 09:56:58;;;;;;;2.93;2.10;;;21.60;44.00;;;;;;6306762;22;20463;-79
2023/02/27 09:59:31;;;;;;;2.33;2.17;;;21.80;43.90;;;;;;6307415;22;20409;-77
2023/02/27 10:02:04;;;;;;;2.50;2.30;;;21.90;43.70;;;;;;6308006;22;20475;-78
2023/02/27 10:04:36;;;;;;;2.40;2.20;;;22.20;43.80;;;;;;6306668;22;20428;-78
2023/02/27 10:07:10;;;;;;;3.07;2.60;;;22.50;43.80;;;;;;6307725;22;20392;-77
2023/02/27 10:09:44;;;;;;;2.50;1.97;;;22.70;43.50;;;;;;6308081;22;20400;-79
2023/02/27 10:12:32;;;;;;;2.87;2.40;;;23.10;43.40;;;;;;6314787;22;20428;-87
2023/02/27 10:15:04;;;;;;;2.53;2.33;;;23.30;43.10;;;;;;6314836;22;20428;-84
2023/02/27 10:17:34;;;;;;;2.60;1.93;;;23.50;43.00;;;;;;6320038;22;20462;-85
2023/02/27 10:20:08;;;;;;;3.10;1.97;;;23.70;43.00;;;;;;6320267;22;20371;-83
2023/02/27 10:22:38;;;;;;;3.00;2.17;;;23.90;42.90;;;;;;6318106;22;20403;-85
2023/02/27 10:25:13;;;;;;;5.03;2.40;;;24.20;42.90;;;;;;6317994;22;20424;-83
2023/02/27 10:28:02;;;;;;;3.23;2.27;;;24.50;42.70;;;;;;6317124;22;20415;-80
2023/02/27 10:30:40;;;;;;;2.03;1.93;;;24.80;42.70;;;;;;6314870;22;20407;-84
2023/02/27 10:33:25;;;;;;;2.30;2.20;;;25.00;42.40;;;;;;6314329;22;20412;-81
2023/02/27 10:36:10;;;;;;;2.20;2.10;;;25.30;42.20;;;;;;6313868;22;20498;-84
2023/02/27 10:39:19;;;;;;;2.10;1.87;;;25.50;42.00;;;;;;6316261;22;20379;-83
2023/02/27 10:41:50;;;;;;;4.40;2.13;;;25.90;41.80;;;;;;6315878;22;20402;-83
2023/02/27 10:44:27;;;;;;;3.77;1.83;;;26.20;42.20;;;;;;6315412;22;20423;-83
2023/02/27 10:47:03;;;;;;;2.87;2.27;;;26.40;41.30;;;;;;6311708;22;20396;-83
2023/02/27 10:49:32;;;;;;;6.93;2.40;;;26.70;41.10;;;;;;6313058;22;20379;-82
2023/02/27 10:52:07;;;;;;;4.67;1.93;;;26.90;41.00;;;;;;6313726;22;20375;-83
2023/02/27 10:54:36;;;;;;;2.40;2.10;;;27.20;40.70;;;;;;6313156;22;20508;-81
2023/02/27 10:57:07;;;;;;;2.60;1.90;;;27.40;40.40;;;;;;6313223;22;20489;-84
2023/02/27 10:59:50;;;;;;;2.73;2.27;;;27.70;40.20;;;;;;6314650;22;20382;-81
2023/02/27 11:02:22;;;;;;;2.60;1.90;;;28.00;39.90;;;;;;6313687;22;20504;-83
2023/02/27 11:04:53;;;;;;;3.23;2.50;;;28.30;39.60;;;;;;6313865;22;20410;-85
2023/02/27 11:07:32;;;;;;;2.57;2.37;;;28.20;38.90;;;;;;6315208;22;20379;-82
2023/02/27 11:10:03;;;;;;;4.03;2.63;;;28.20;39.10;;;;;;6312607;22;20378;-83
2023/02/27 11:12:33;;;;;;;4.20;2.67;;;28.10;38.80;;;;;;6315084;22;20427;-84
2023/02/27 11:15:02;;;;;;;5.10;3.10;;;27.90;39.10;;;;;;6313883;22;20511;-85
2023/02/27 11:17:31;;;;;;;3.00;2.80;;;27.90;39.40;;;;;;6314939;22;20432;-83
2023/02/27 11:20:00;;;;;;;2.93;2.63;;;28.10;39.40;;;;;;6313089;22;20431;-86
2023/02/27 11:22:29;;;;;;;2.60;2.50;;;28.50;39.40;;;;;;6319644;22;20404;-83
2023/02/27 11:25:19;;;;;;;2.70;2.37;;;29.00;39.20;;;;;;6318450;22;20485;-84
2023/02/27 11:27:50;;;;;;;3.47;2.90;;;30.00;38.30;;;;;;6317117;22;20481;-84
2023/02/27 11:30:25;;;;;;;2.80;2.60;;;31.10;37.20;;;;;;6314784;22;20386;-85
2023/02/27 11:32:54;;;;;;;3.20;2.80;;;32.10;35.80;;;;;;6314024;22;20403;-83
2023/02/27 11:35:24;;;;;;;2.70;2.50;;;33.20;34.40;;;;;;6316460;22;20404;-83
2023/02/27 11:37:52;;;;;;;2.50;2.40;;;34.40;33.20;;;;;;6325840;22;20504;-84
2023/02/27 11:40:21;;;;;;;2.30;2.20;;;34.20;30.90;;;;;;6310940;22;20438;-84
2023/02/27 11:42:51;;;;;;;4.00;2.30;;;33.90;30.90;;;;;;6311131;22;20442;-83
2023/02/27 11:45:26;;;;;;;2.40;2.30;;;32.90;31.70;;;;;;6309140;22;20935;-83
2023/02/27 11:48:18;;;;;;;3.13;2.10;;;32.70;32.70;;;;;;6310456;22;20388;-85
2023/02/27 11:50:56;;;;;;;2.63;2.23;;;33.10;33.80;;;;;;6311618;22;20420;-84
2023/02/27 11:53:34;;;;;;;2.40;2.20;;;33.80;31.00;;;;;;6310832;22;20459;-83
2023/02/27 11:56:05;;;;;;;2.23;1.90;;;34.40;32.10;;;;;;6310042;22;20427;-85
2023/02/27 11:58:43;;;;;;;2.00;1.90;;;35.70;30.80;;;;;;6310608;22;20495;-86
2023/02/27 12:01:17;;;;;;;3.20;2.23;;;36.90;29.60;;;;;;6311584;22;20400;-85
2023/02/27 12:03:49;;;;;;;2.30;2.20;;;38.00;28.80;;;;;;6315151;22;20430;-87
2023/02/27 12:06:19;;;;;;;1.73;1.40;;;38.90;27.90;;;;;;6314254;22;20423;-79
2023/02/27 12:08:49;;;;;;;2.37;1.70;;;39.80;27.30;;;;;;6311931;22;20436;-80
2023/02/27 12:11:21;;;;;;;3.17;1.47;;;40.20;26.80;;;;;;6309529;22;20464;-79
2023/02/27 12:13:53;;;;;;;1.20;1.20;;;40.80;26.00;;;;;;6310559;22;20423;-79
2023/02/27 12:16:24;;;;;;;2.80;1.73;;;41.20;25.60;;;;;;6308111;22;20397;-79
2023/02/27 12:18:55;;;;;;;2.60;1.57;;;41.90;25.40;;;;;;6307873;22;20399;-79
2023/02/27 12:21:24;;;;;;;1.60;1.50;;;42.30;24.80;;;;;;6309318;22;20759;-80
2023/02/27 12:23:54;;;;;;;1.87;1.50;;;42.10;24.30;;;;;;6308920;22;20428;-79
2023/02/27 12:26:23;;;;;;;1.77;1.40;;;41.70;24.50;;;;;;6307858;22;20435;-77
2023/02/27 12:28:56;;;;;;;1.30;1.30;;;41.40;24.60;;;;;;6308947;22;20403;-78
2023/02/27 12:31:43;;;;;;;1.80;1.60;;;40.70;24.50;;;;;;6307541;22;20399;-79
2023/02/27 12:34:36;;;;;;;2.37;1.57;;;39.80;25.20;;;;;;6308404;22;20439;-78
2023/02/27 12:37:05;;;;;;;1.80;1.70;;;38.80;25.90;;;;;;6286358;22;20450;-77
2023/02/27 12:39:35;;;;;;;1.83;1.73;;;37.90;26.10;;;;;;6307173;22;20416;-82
2023/02/27 12:42:17;;;;;;;3.17;1.70;;;37.00;26.80;;;;;;6307525;22;20416;-78
2023/02/27 12:44:58;;;;;;;2.00;1.50;;;36.20;27.40;;;;;;6308447;22;20491;-79
2023/02/27 12:47:28;;;;;;;2.10;1.60;;;35.50;28.10;;;;;;6308555;22;20387;-80
2023/02/27 12:49:58;;;;;;;1.77;1.47;;;34.80;28.50;;;;;;6307578;22;20384;-77
2023/02/27 12:52:32;;;;;;;1.80;1.70;;;34.40;29.10;;;;;;6306854;22;20396;-77
2023/02/27 12:55:03;;;;;;;2.50;2.03;;;34.00;29.60;;;;;;6306970;22;20427;-77
2023/02/27 12:57:49;;;;;;;4.30;1.90;;;33.50;29.60;;;;;;6306980;22;20436;-78
2023/02/27 13:00:19;;;;;;;1.83;1.73;;;33.00;30.00;;;;;;6307414;22;20400;-78
2023/02/27 13:02:50;;;;;;;2.10;1.90;;;32.60;31.00;;;;;;6309453;22;20363;-80
2023/02/27 13:05:37;;;;;;;4.00;1.80;;;32.20;30.90;;;;;;6309444;22;20866;-78
2023/02/27 13:08:14;;;;;;;2.57;1.50;;;32.00;31.10;;;;;;6309302;22;20392;-78